Time;durP1;ratioP1;P1;durP2;ratioP2;P2;SDS_P1;SDS_P2;PMS_P1;PMS_P2;Temp;Humidity;BMP_temperature;BMP_pressure;BME280_temperature;BME280_humidity;BME280_pressure;Samples;Min_cycle;Max_cycle;Signal;HPM_P1;HPM_P2
2022/01/20 00:00:19;;;;;;;;;;;;;;;-1.80;61.64;100644.56;5027662;28;19981;-81
2022/01/20 00:02:46;;;;;;;;;;;;;;;-1.70;61.07;100640.75;5043125;28;20002;-80
2022/01/20 00:26:25;;;;;;;;;;;;;;;-1.65;61.24;100635.78;5044380;28;19917;-81
2022/01/20 00:28:55;;;;;;;;;;;;;;;-1.53;60.22;100625.13;5024676;28;20342;-81
2022/01/20 00:33:51;;;;;;;;;;;;;;;-1.44;60.13;100630.75;5043516;28;20554;-81
2022/01/20 00:38:42;;;;;;;;;;;;;;;-1.54;59.80;100613.03;5045855;28;19923;-81
2022/01/20 00:41:17;;;;;;;;;;;;;;;-1.53;59.89;100610.50;5028718;28;19917;-81
2022/01/20 00:43:42;;;;;;;;;;;;;;;-1.51;60.41;100608.88;5041373;28;20020;-81
2022/01/20 00:46:08;;;;;;;;;;;;;;;-1.56;60.60;100610.38;5046822;28;20446;-81
2022/01/20 00:48:33;;;;;;;;;;;;;;;-1.51;59.60;100619.22;5060140;28;20622;-81
2022/01/20 00:50:58;;;;;;;;;;;;;;;-1.54;59.91;100619.09;5046014;28;20357;-81
2022/01/20 00:53:24;;;;;;;;;;;;;;;-1.59;60.40;100619.66;5032108;28;19913;-81
2022/01/20 00:55:49;;;;;;;;;;;;;;;-1.64;59.55;100614.25;5025566;28;20092;-81
2022/01/20 00:58:15;;;;;;;;;;;;;;;-1.72;60.05;100620.78;5027639;28;19920;-81
2022/01/20 01:00:41;;;;;;;;;;;;;;;-1.75;59.67;100608.56;5026895;28;19905;-81
2022/01/20 01:03:06;;;;;;;;;;;;;;;-1.72;60.12;100600.94;5038230;28;19960;-81
2022/01/20 01:05:35;;;;;;;;;;;;;;;-1.84;60.78;100603.84;5045974;28;19956;-81
2022/01/20 01:08:00;;;;;;;;;;;;;;;-1.85;60.89;100604.66;5046175;28;19916;-81
2022/01/20 01:10:27;;;;;;;;;;;;;;;-1.93;61.19;100597.31;5043733;28;20406;-81
2022/01/20 01:12:59;;;;;;;;;;;;;;;-1.85;61.84;100594.31;5036493;28;20409;-81
2022/01/20 01:15:30;;;;;;;;;;;;;;;-1.68;61.12;100587.38;5044494;28;19920;-81
2022/01/20 01:23:24;;;;;;;;;;;;;;;-1.66;60.11;100569.31;5033728;28;19913;-81
2022/01/20 01:25:49;;;;;;;;;;;;;;;-1.76;60.50;100561.91;5026314;28;19909;-81
2022/01/20 01:28:17;;;;;;;;;;;;;;;-1.75;60.39;100562.00;5025514;28;19939;-81
2022/01/20 01:33:13;;;;;;;;;;;;;;;-1.79;60.21;100554.91;5037841;28;19912;-81
2022/01/20 01:35:41;;;;;;;;;;;;;;;-1.81;60.59;100549.69;5045176;28;19913;-81
2022/01/20 01:40:34;;;;;;;;;;;;;;;-1.74;60.53;100552.56;5045390;28;20007;-81
2022/01/20 01:43:03;;;;;;;;;;;;;;;-1.82;59.87;100544.44;5035659;28;20419;-80
2022/01/20 01:45:30;;;;;;;;;;;;;;;-2.02;60.19;100553.78;5026251;28;19909;-81
2022/01/20 01:47:56;;;;;;;;;;;;;;;-2.34;60.45;100555.66;5024911;28;19920;-81
2022/01/20 01:50:22;;;;;;;;;;;;;;;-2.49;60.75;100555.75;5026183;28;19909;-81
2022/01/20 01:52:48;;;;;;;;;;;;;;;-2.44;62.15;100548.22;5031409;28;20284;-81
2022/01/20 01:55:13;;;;;;;;;;;;;;;-2.56;63.69;100549.38;5026044;28;19915;-81
2022/01/20 01:57:39;;;;;;;;;;;;;;;-3.03;64.24;100547.78;5025370;28;19917;-81
2022/01/20 02:00:06;;;;;;;;;;;;;;;-2.80;63.41;100550.69;5025860;28;19923;-81
2022/01/20 02:02:31;;;;;;;;;;;;;;;-3.04;63.35;100546.03;5030475;28;19916;-81
2022/01/20 02:04:56;;;;;;;;;;;;;;;-3.00;63.25;100547.94;5045710;28;20294;-81
2022/01/20 02:07:45;;;;;;;;;;;;;;;-2.99;63.09;100541.09;5039790;28;19917;-81
2022/01/20 02:20:52;;;;;;;;;;;;;;;-2.95;62.90;100524.94;5028930;28;20018;-81
2022/01/20 02:23:18;;;;;;;;;;;;;;;-3.04;63.05;100524.47;5038319;28;19917;-81
2022/01/20 02:25:43;;;;;;;;;;;;;;;-3.08;63.09;100516.56;5049433;28;19915;-81
2022/01/20 02:28:09;;;;;;;;;;;;;;;-2.94;62.47;100511.25;5048020;28;20319;-81
2022/01/20 02:30:36;;;;;;;;;;;;;;;-2.83;62.55;100501.47;5038640;28;20611;-81
2022/01/20 02:33:03;;;;;;;;;;;;;;;-2.73;62.34;100499.44;5037691;28;19909;-81
2022/01/20 02:35:29;;;;;;;;;;;;;;;-2.66;61.98;100505.78;5048048;28;20350;-81
2022/01/20 02:38:05;;;;;;;;;;;;;;;-2.56;62.11;100502.00;5039072;28;20368;-81
2022/01/20 02:45:52;;;;;;;;;;;;;;;-2.63;62.09;100497.31;5028886;28;19963;-81
2022/01/20 02:48:18;;;;;;;;;;;;;;;-2.48;63.09;100487.78;5039114;28;20702;-81
2022/01/20 02:50:44;;;;;;;;;;;;;;;-2.53;62.63;100495.28;5049000;28;19927;-81
2022/01/20 02:53:09;;;;;;;;;;;;;;;-2.49;62.88;100488.56;5039816;28;19913;-81
2022/01/20 02:55:35;;;;;;;;;;;;;;;-2.34;61.83;100479.00;5029301;28;19919;-81
2022/01/20 02:58:00;;;;;;;;;;;;;;;-2.48;61.96;100477.44;5029041;28;19963;-81
2022/01/20 03:00:26;;;;;;;;;;;;;;;-2.61;62.31;100477.63;5028957;28;19948;-81
2022/01/20 03:02:51;;;;;;;;;;;;;;;-2.50;62.12;100473.91;5034300;28;19948;-81
2022/01/20 03:05:17;;;;;;;;;;;;;;;-2.39;61.48;100469.25;5047198;28;19916;-81
2022/01/20 03:07:43;;;;;;;;;;;;;;;-2.57;61.65;100469.22;5047726;28;19912;-81
2022/01/20 03:10:08;;;;;;;;;;;;;;;-2.65;61.26;100471.41;5048300;28;19913;-81
2022/01/20 03:12:34;;;;;;;;;;;;;;;-2.69;61.64;100472.06;5048268;28;19924;-81
2022/01/20 03:14:59;;;;;;;;;;;;;;;-2.68;61.50;100462.63;5048439;28;19913;-81
2022/01/20 03:17:25;;;;;;;;;;;;;;;-2.80;61.44;100475.81;5045595;28;19951;-81
2022/01/20 03:19:50;;;;;;;;;;;;;;;-2.75;61.79;100467.50;5047631;28;19912;-81
2022/01/20 03:22:16;;;;;;;;;;;;;;;-2.70;61.14;100472.88;5047283;28;19917;-81
2022/01/20 03:24:41;;;;;;;;;;;;;;;-2.74;61.37;100473.53;5047576;28;19916;-81
2022/01/20 03:27:06;;;;;;;;;;;;;;;-2.69;60.66;100474.66;5047851;28;19917;-81
2022/01/20 03:29:32;;;;;;;;;;;;;;;-2.91;61.34;100470.97;5047458;28;20476;-81
2022/01/20 03:31:57;;;;;;;;;;;;;;;-2.72;61.35;100467.66;5047193;28;20409;-81
2022/01/20 03:34:22;;;;;;;;;;;;;;;-2.63;61.27;100468.91;5047385;28;20655;-82
2022/01/20 03:36:48;;;;;;;;;;;;;;;-2.75;61.48;100470.06;5048007;28;19955;-81
2022/01/20 03:39:14;;;;;;;;;;;;;;;-2.84;61.35;100472.19;5047737;28;19963;-82
2022/01/20 03:41:39;;;;;;;;;;;;;;;-3.00;61.54;100479.94;5047830;28;20011;-81
2022/01/20 03:44:04;;;;;;;;;;;;;;;-2.91;62.11;100481.28;5047191;28;19920;-81
2022/01/20 03:46:30;;;;;;;;;;;;;;;-3.11;62.65;100475.09;5047139;28;20011;-81
2022/01/20 03:49:06;;;;;;;;;;;;;;;-3.10;62.75;100473.41;5046980;28;20345;-81
2022/01/20 03:51:32;;;;;;;;;;;;;;;-2.98;62.17;100460.25;5047982;28;19962;-82
2022/01/20 03:53:58;;;;;;;;;;;;;;;-3.52;61.68;100463.47;5046393;28;19916;-83
2022/01/20 03:56:23;;;;;;;;;;;;;;;-3.58;62.21;100465.72;5047601;28;19912;-80
2022/01/20 03:58:50;;;;;;;;;;;;;;;-3.63;62.67;100459.41;5047941;28;19925;-81
2022/01/20 04:01:16;;;;;;;;;;;;;;;-3.90;63.71;100463.97;5046321;28;19916;-82
2022/01/20 04:03:41;;;;;;;;;;;;;;;-3.68;63.26;100458.28;5045471;28;20338;-82
2022/01/20 04:06:06;;;;;;;;;;;;;;;-3.43;62.63;100455.34;5047422;28;19913;-82
2022/01/20 04:08:35;;;;;;;;;;;;;;;-3.58;63.27;100445.09;5046395;28;19912;-81
2022/01/20 04:11:02;;;;;;;;;;;;;;;-3.64;63.41;100455.09;5045649;28;19908;-81
2022/01/20 04:13:30;;;;;;;;;;;;;;;-3.48;62.47;100459.38;5046066;28;20291;-81
2022/01/20 04:15:56;;;;;;;;;;;;;;;-3.75;64.40;100458.75;5045927;28;19920;-83
2022/01/20 04:18:25;;;;;;;;;;;;;;;-3.52;64.03;100467.72;5045486;28;19962;-81
2022/01/20 04:20:51;;;;;;;;;;;;;;;-3.47;63.74;100468.88;5045958;28;19959;-81
2022/01/20 04:23:16;;;;;;;;;;;;;;;-3.51;64.18;100467.81;5046567;28;19963;-81
2022/01/20 04:25:42;;;;;;;;;;;;;;;-3.51;64.19;100467.81;5045111;28;19917;-80
2022/01/20 04:28:07;;;;;;;;;;;;;;;-3.69;65.94;100459.09;5046136;28;19913;-80
2022/01/20 04:30:33;;;;;;;;;;;;;;;-3.72;66.36;100464.06;5045502;28;19920;-82
2022/01/20 04:32:58;;;;;;;;;;;;;;;-3.47;65.75;100459.44;5044173;28;19916;-80
2022/01/20 04:35:24;;;;;;;;;;;;;;;-3.33;65.69;100455.03;5045859;28;19924;-81
2022/01/20 04:37:51;;;;;;;;;;;;;;;-3.25;64.80;100452.84;5043453;28;19916;-81
2022/01/20 04:40:16;;;;;;;;;;;;;;;-3.29;65.14;100451.81;5042608;28;19913;-81
2022/01/20 04:42:45;;;;;;;;;;;;;;;-3.21;65.21;100444.47;5045042;28;20740;-81
2022/01/20 04:45:13;;;;;;;;;;;;;;;-3.09;64.74;100447.69;5045040;28;19919;-81
2022/01/20 04:58:22;;;;;;;;;;;;;;;-3.31;63.09;100445.66;5046313;28;19924;-82
2022/01/20 05:00:47;;;;;;;;;;;;;;;-3.40;63.38;100441.72;5046307;28;20633;-81
2022/01/20 05:03:12;;;;;;;;;;;;;;;-3.36;63.47;100446.25;5046559;28;20737;-81
2022/01/20 05:05:38;;;;;;;;;;;;;;;-3.27;62.60;100444.16;5046175;28;19912;-81
2022/01/20 05:08:03;;;;;;;;;;;;;;;-3.31;62.52;100443.06;5044949;28;20026;-82
2022/01/20 05:10:31;;;;;;;;;;;;;;;-3.37;62.59;100444.47;5046147;28;19912;-82
2022/01/20 05:15:22;;;;;;;;;;;;;;;-3.28;62.11;100448.41;5046283;28;19956;-82
2022/01/20 05:17:48;;;;;;;;;;;;;;;-3.62;64.01;100456.91;5045536;28;19913;-82
2022/01/20 05:20:13;;;;;;;;;;;;;;;-3.74;64.56;100453.69;5045526;28;19923;-82
2022/01/20 05:22:39;;;;;;;;;;;;;;;-3.72;64.00;100446.94;5044561;28;19913;-82
2022/01/20 05:25:05;;;;;;;;;;;;;;;-3.79;65.24;100461.16;5045503;28;19925;-82
2022/01/20 05:27:30;;;;;;;;;;;;;;;-3.86;65.53;100453.91;5046568;28;19916;-83
2022/01/20 05:29:56;;;;;;;;;;;;;;;-3.67;65.41;100454.91;5046035;28;19955;-83
2022/01/20 05:32:21;;;;;;;;;;;;;;;-3.95;66.25;100468.88;5045156;28;19917;-82
2022/01/20 05:34:47;;;;;;;;;;;;;;;-3.88;66.00;100459.78;5046293;28;19990;-82
2022/01/20 05:37:12;;;;;;;;;;;;;;;-3.80;66.72;100459.41;5045691;28;19917;-83
2022/01/20 05:39:38;;;;;;;;;;;;;;;-3.91;67.05;100455.34;5045756;28;19916;-82
2022/01/20 05:42:03;;;;;;;;;;;;;;;-3.78;66.52;100457.78;5045053;28;20450;-82
2022/01/20 05:44:29;;;;;;;;;;;;;;;-3.93;66.40;100456.06;5048522;28;20303;-83
2022/01/20 05:46:54;;;;;;;;;;;;;;;-3.80;66.76;100461.06;5049250;28;19993;-82
2022/01/20 05:49:22;;;;;;;;;;;;;;;-3.94;66.70;100455.16;5049274;28;20007;-81
2022/01/20 05:51:49;;;;;;;;;;;;;;;-3.84;66.81;100456.59;5049889;28;19967;-82
2022/01/20 05:54:15;;;;;;;;;;;;;;;-3.65;66.45;100450.72;5050191;28;19960;-82
2022/01/20 05:56:41;;;;;;;;;;;;;;;-3.67;66.67;100450.63;5050462;28;20016;-85
2022/01/20 05:59:06;;;;;;;;;;;;;;;-3.49;66.60;100447.25;5049409;28;19916;-81
2022/01/20 06:01:36;;;;;;;;;;;;;;;-3.44;65.59;100433.81;5030282;28;19905;-81
2022/01/20 06:04:01;;;;;;;;;;;;;;;-3.17;67.38;100433.47;5029778;28;19920;-81
2022/01/20 06:06:27;;;;;;;;;;;;;;;-3.26;64.83;100428.75;5030550;28;19913;-81
2022/01/20 06:08:52;;;;;;;;;;;;;;;-3.34;64.08;100437.75;5030763;28;19959;-81
2022/01/20 06:11:17;;;;;;;;;;;;;;;-3.64;61.95;100442.19;5030026;28;20863;-81
2022/01/20 06:13:43;;;;;;;;;;;;;;;-3.63;62.13;100438.78;5029839;28;20334;-81
2022/01/20 06:16:09;;;;;;;;;;;;;;;-3.91;63.18;100439.00;5030576;28;19936;-81
2022/01/20 06:18:34;;;;;;;;;;;;;;;-3.78;63.16;100444.91;5030087;28;19913;-82
2022/01/20 06:21:00;;;;;;;;;;;;;;;-3.85;64.06;100444.47;5030041;28;20299;-82
2022/01/20 06:23:25;;;;;;;;;;;;;;;-3.51;63.77;100438.56;5030172;28;19913;-82
2022/01/20 06:25:51;;;;;;;;;;;;;;;-3.44;63.52;100435.53;5030267;28;20023;-82
2022/01/20 06:28:17;;;;;;;;;;;;;;;-3.26;63.18;100443.31;5029799;28;20318;-81
2022/01/20 06:30:43;;;;;;;;;;;;;;;-3.11;62.79;100443.25;5029501;28;19913;-82
2022/01/20 06:33:08;;;;;;;;;;;;;;;-2.94;62.88;100438.94;5029580;28;19913;-81
2022/01/20 06:35:34;;;;;;;;;;;;;;;-2.75;65.63;100441.66;5029065;28;19913;-81
2022/01/20 06:38:00;;;;;;;;;;;;;;;-2.71;64.58;100440.09;5034221;28;19924;-82
2022/01/20 06:40:25;;;;;;;;;;;;;;;-2.67;65.21;100435.97;5047215;28;19919;-81
2022/01/20 06:42:50;;;;;;;;;;;;;;;-2.49;64.61;100431.72;5048680;28;19931;-81
2022/01/20 06:45:17;;;;;;;;;;;;;;;-2.35;63.86;100438.47;5049241;28;20333;-82
2022/01/20 06:47:42;;;;;;;;;;;;;;;-2.10;63.77;100433.56;5047734;28;19920;-82
2022/01/20 06:50:08;;;;;;;;;;;;;;;-2.19;64.14;100445.25;5047485;28;20295;-82
2022/01/20 06:52:34;;;;;;;;;;;;;;;-2.09;64.45;100436.25;5049065;28;20590;-81
2022/01/20 06:55:00;;;;;;;;;;;;;;;-2.04;63.61;100439.03;5048678;28;19919;-82
2022/01/20 06:57:25;;;;;;;;;;;;;;;-2.25;64.94;100431.16;5046899;28;19954;-82
2022/01/20 06:59:51;;;;;;;;;;;;;;;-1.83;63.99;100426.25;5049374;28;20007;-83
2022/01/20 07:02:16;;;;;;;;;;;;;;;-1.59;63.07;100423.00;5048548;28;19913;-81
2022/01/20 07:04:43;;;;;;;;;;;;;;;-1.63;63.09;100428.03;5048159;28;19924;-82
2022/01/20 07:07:09;;;;;;;;;;;;;;;-1.40;63.18;100437.69;5047943;28;19913;-81
2022/01/20 07:09:34;;;;;;;;;;;;;;;-1.28;63.27;100438.25;5049077;28;19924;-82
2022/01/20 07:12:00;;;;;;;;;;;;;;;-1.11;62.66;100438.97;5048576;28;19919;-82
2022/01/20 07:14:25;;;;;;;;;;;;;;;-1.02;62.50;100439.38;5042691;28;20359;-83
2022/01/20 07:16:51;;;;;;;;;;;;;;;-0.77;62.40;100436.13;5047962;28;19913;-81
2022/01/20 07:19:16;;;;;;;;;;;;;;;-0.69;62.69;100433.00;5047793;28;19956;-81
2022/01/20 07:21:42;;;;;;;;;;;;;;;-0.72;62.44;100431.16;5045682;28;19912;-81
2022/01/20 07:24:07;;;;;;;;;;;;;;;-0.48;62.10;100438.16;5046637;28;19909;-81
2022/01/20 07:26:33;;;;;;;;;;;;;;;-0.62;61.08;100417.75;5046888;28;19970;-81
2022/01/20 07:28:58;;;;;;;;;;;;;;;-0.37;60.94;100411.00;5046226;28;19912;-81
2022/01/20 07:31:24;;;;;;;;;;;;;;;-0.21;60.57;100402.09;5046922;28;20406;-81
2022/01/20 07:33:49;;;;;;;;;;;;;;;-0.10;59.73;100402.53;5046554;28;20286;-81
2022/01/20 07:36:15;;;;;;;;;;;;;;;0.16;60.44;100408.72;5047353;28;20338;-81
2022/01/20 07:38:40;;;;;;;;;;;;;;;0.13;60.28;100398.25;5047482;28;19912;-81
2022/01/20 07:41:05;;;;;;;;;;;;;;;0.23;59.07;100396.88;5046754;28;20387;-82
2022/01/20 07:43:31;;;;;;;;;;;;;;;0.19;58.73;100398.47;5047614;28;19923;-81
2022/01/20 07:45:56;;;;;;;;;;;;;;;0.03;59.11;100403.88;5047860;28;19912;-81
2022/01/20 07:48:21;;;;;;;;;;;;;;;0.22;58.73;100406.38;5047888;28;20006;-81
2022/01/20 07:50:47;;;;;;;;;;;;;;;0.38;58.84;100401.75;5048339;28;19909;-81
2022/01/20 07:53:12;;;;;;;;;;;;;;;0.80;57.12;100391.16;5048528;28;20485;-81
2022/01/20 07:55:38;;;;;;;;;;;;;;;0.60;57.57;100393.91;5047915;28;20339;-81
2022/01/20 07:58:04;;;;;;;;;;;;;;;0.87;57.92;100382.78;5048076;28;20414;-81
2022/01/20 08:00:29;;;;;;;;;;;;;;;0.95;56.91;100385.63;5047497;28;19959;-81
2022/01/20 08:02:54;;;;;;;;;;;;;;;1.37;55.54;100386.19;5047068;28;19916;-82
2022/01/20 08:05:20;;;;;;;;;;;;;;;0.83;56.42;100386.94;5047448;28;19920;-82
2022/01/20 08:07:45;;;;;;;;;;;;;;;1.00;56.75;100391.88;5045193;28;19944;-81
2022/01/20 08:10:12;;;;;;;;;;;;;;;1.31;55.60;100398.09;5046765;28;19967;-82
2022/01/20 08:12:37;;;;;;;;;;;;;;;1.70;53.79;100395.94;5046754;28;19915;-82
2022/01/20 08:15:03;;;;;;;;;;;;;;;1.97;53.46;100390.72;5047537;28;19916;-82
2022/01/20 08:17:29;;;;;;;;;;;;;;;2.34;51.47;100396.16;5045917;28;19999;-82
2022/01/20 08:19:54;;;;;;;;;;;;;;;2.42;50.64;100389.44;5046484;28;20035;-82
2022/01/20 08:22:20;;;;;;;;;;;;;;;2.47;50.85;100381.75;5047481;28;19948;-81
2022/01/20 08:24:51;;;;;;;;;;;;;;;2.13;51.98;100376.47;5045591;28;19978;-81
2022/01/20 08:27:17;;;;;;;;;;;;;;;2.18;51.51;100373.09;5047151;28;20035;-80
2022/01/20 08:29:42;;;;;;;;;;;;;;;2.50;51.06;100369.72;5046520;28;20035;-81
2022/01/20 08:32:08;;;;;;;;;;;;;;;2.64;51.28;100377.94;5046816;28;19932;-80
2022/01/20 08:34:33;;;;;;;;;;;;;;;2.97;50.31;100371.88;5039364;28;19922;-80
2022/01/20 08:36:59;;;;;;;;;;;;;;;3.07;49.75;100372.97;5026935;28;20703;-80
2022/01/20 08:41:55;;;;;;;;;;;;;;;2.89;50.25;100386.41;5027056;28;19913;-79
2022/01/20 08:44:21;;;;;;;;;;;;;;;3.04;49.88;100381.63;5043634;28;19913;-79
2022/01/20 08:46:46;;;;;;;;;;;;;;;3.15;49.57;100378.38;5046238;28;20006;-79
2022/01/20 08:49:12;;;;;;;;;;;;;;;3.30;49.36;100370.97;5046484;28;20435;-79
2022/01/20 08:51:37;;;;;;;;;;;;;;;3.15;48.28;100367.97;5040371;28;19912;-80
2022/01/20 08:54:03;;;;;;;;;;;;;;;2.78;48.66;100367.88;5026766;28;19920;-79
2022/01/20 08:56:28;;;;;;;;;;;;;;;2.69;48.84;100367.63;5026188;28;19909;-79
2022/01/20 08:58:53;;;;;;;;;;;;;;;2.91;48.60;100366.50;5026697;28;19949;-79
2022/01/20 09:01:19;;;;;;;;;;;;;;;3.09;48.86;100362.59;5026465;28;20378;-79
2022/01/20 09:03:44;;;;;;;;;;;;;;;3.58;48.97;100361.22;5026771;28;20058;-79
2022/01/20 09:06:09;;;;;;;;;;;;;;;3.62;49.37;100356.97;5039308;28;19938;-79
2022/01/20 09:08:35;;;;;;;;;;;;;;;3.64;48.53;100363.09;5046773;28;19917;-79
2022/01/20 09:11:03;;;;;;;;;;;;;;;3.53;48.91;100366.31;5046152;28;20271;-80
2022/01/20 09:16:12;;;;;;;;;;;;;;;3.39;47.66;100383.38;5026358;28;19919;-79
2022/01/20 09:18:37;;;;;;;;;;;;;;;3.43;47.01;100376.47;5025904;28;19913;-79
2022/01/20 09:21:03;;;;;;;;;;;;;;;3.34;46.94;100375.41;5026513;28;19938;-79
2022/01/20 09:23:29;;;;;;;;;;;;;;;3.59;47.23;100371.69;5040693;28;19917;-79
2022/01/20 09:25:54;;;;;;;;;;;;;;;3.81;47.21;100368.72;5046253;28;19919;-79
2022/01/20 09:28:19;;;;;;;;;;;;;;;3.95;47.51;100364.66;5045856;28;19916;-80
2022/01/20 09:30:46;;;;;;;;;;;;;;;3.86;48.07;100354.03;5046231;28;19982;-79
2022/01/20 09:33:13;;;;;;;;;;;;;;;3.90;47.77;100350.66;5046547;28;19917;-79
2022/01/20 09:35:40;;;;;;;;;;;;;;;3.79;47.93;100341.69;5045580;28;19920;-80
2022/01/20 09:38:05;;;;;;;;;;;;;;;3.89;46.63;100328.00;5045937;28;19917;-79
2022/01/20 09:40:32;;;;;;;;;;;;;;;3.92;47.00;100322.84;5046425;28;20341;-80
2022/01/20 09:42:58;;;;;;;;;;;;;;;4.00;47.11;100334.34;5046142;28;19913;-79
2022/01/20 09:45:23;;;;;;;;;;;;;;;4.07;46.97;100319.69;5046156;28;19920;-80
2022/01/20 09:47:49;;;;;;;;;;;;;;;4.07;47.27;100323.16;5045691;28;19959;-79
2022/01/20 09:50:18;;;;;;;;;;;;;;;4.04;47.74;100315.28;5045877;28;19966;-82
2022/01/20 09:52:44;;;;;;;;;;;;;;;4.22;47.08;100306.94;5046260;28;19970;-80
2022/01/20 09:55:10;;;;;;;;;;;;;;;4.30;46.86;100296.66;5044612;28;19912;-81
2022/01/20 09:57:35;;;;;;;;;;;;;;;4.35;47.60;100284.56;5045639;28;19912;-80
2022/01/20 10:00:01;;;;;;;;;;;;;;;4.53;46.62;100276.22;5046249;28;19934;-80
2022/01/20 10:02:26;;;;;;;;;;;;;;;4.60;46.44;100270.25;5045727;28;19913;-79
2022/01/20 10:04:54;;;;;;;;;;;;;;;4.36;47.01;100268.06;5046209;28;19982;-80
2022/01/20 10:07:20;;;;;;;;;;;;;;;4.08;47.98;100266.63;5046485;28;19909;-80
2022/01/20 10:09:47;;;;;;;;;;;;;;;4.17;47.55;100255.47;5045944;28;20449;-80
2022/01/20 10:12:15;;;;;;;;;;;;;;;4.60;46.99;100256.28;5045970;28;19964;-81
2022/01/20 10:14:44;;;;;;;;;;;;;;;4.52;47.03;100243.09;5044554;28;20020;-80
2022/01/20 10:17:29;;;;;;;;;;;;;;;4.46;46.77;100237.75;5045657;28;20438;-79
2022/01/20 10:20:05;;;;;;;;;;;;;;;4.37;46.30;100234.97;5045529;28;19908;-80
2022/01/20 10:22:32;;;;;;;;;;;;;;;4.51;46.33;100238.72;5043865;28;20055;-80
2022/01/20 10:25:03;;;;;;;;;;;;;;;4.63;46.16;100231.13;5043594;28;19913;-80
2022/01/20 10:27:30;;;;;;;;;;;;;;;4.26;47.06;100225.22;5043987;28;19959;-81
2022/01/20 10:30:07;;;;;;;;;;;;;;;4.37;47.04;100222.81;5043761;28;20449;-81
2022/01/20 10:32:39;;;;;;;;;;;;;;;4.56;47.22;100210.94;5047072;28;19913;-81
2022/01/20 10:35:06;;;;;;;;;;;;;;;4.78;46.80;100206.09;5046618;28;19916;-80
2022/01/20 10:37:31;;;;;;;;;;;;;;;4.96;45.63;100201.16;5048982;28;19956;-80
2022/01/20 10:40:06;;;;;;;;;;;;;;;4.60;46.27;100188.34;5048263;28;19963;-80
2022/01/20 10:42:35;;;;;;;;;;;;;;;4.74;45.99;100189.47;5048541;28;19920;-80
2022/01/20 10:45:01;;;;;;;;;;;;;;;4.59;46.62;100171.81;5064075;28;19934;-81
2022/01/20 10:47:27;;;;;;;;;;;;;;;4.69;46.42;100172.81;5048364;28;19916;-81
2022/01/20 10:49:53;;;;;;;;;;;;;;;4.89;45.27;100173.13;5048903;28;19912;-82
2022/01/20 10:52:20;;;;;;;;;;;;;;;5.01;44.99;100173.34;5046832;28;19923;-81
2022/01/20 10:54:46;;;;;;;;;;;;;;;5.24;43.96;100166.69;5049387;28;19916;-81
2022/01/20 10:57:13;;;;;;;;;;;;;;;5.36;43.16;100154.66;5047966;28;19919;-81
2022/01/20 10:59:51;;;;;;;;;;;;;;;5.55;43.13;100150.53;5049080;28;19916;-82
2022/01/20 11:02:19;;;;;;;;;;;;;;;5.46;43.42;100158.28;5048576;28;19913;-81
2022/01/20 11:04:44;;;;;;;;;;;;;;;5.48;43.65;100140.84;5049029;28;19908;-82
2022/01/20 11:07:10;;;;;;;;;;;;;;;5.43;43.02;100137.28;5047661;28;19967;-81
2022/01/20 11:09:39;;;;;;;;;;;;;;;5.92;42.27;100140.50;5049007;28;20311;-82
2022/01/20 11:12:05;;;;;;;;;;;;;;;5.96;41.81;100136.16;5048400;28;19919;-81
2022/01/20 11:14:31;;;;;;;;;;;;;;;6.06;41.54;100124.97;5047943;28;20007;-81
2022/01/20 11:16:56;;;;;;;;;;;;;;;5.98;41.13;100117.88;5047334;28;19915;-81
2022/01/20 11:19:22;;;;;;;;;;;;;;;6.05;41.96;100112.72;5047765;28;19909;-82
2022/01/20 11:21:48;;;;;;;;;;;;;;;6.18;42.01;100100.66;5048690;28;19966;-81
2022/01/20 11:24:21;;;;;;;;;;;;;;;6.02;42.87;100109.22;5047534;28;19923;-82
2022/01/20 11:26:56;;;;;;;;;;;;;;;5.84;42.62;100102.91;5048745;28;19913;-80
2022/01/20 11:29:23;;;;;;;;;;;;;;;5.99;42.69;100098.69;5046627;28;20295;-82
2022/01/20 11:31:49;;;;;;;;;;;;;;;5.82;42.89;100107.22;5048237;28;19919;-81
2022/01/20 11:34:16;;;;;;;;;;;;;;;5.92;43.11;100101.22;5048228;28;19913;-80
2022/01/20 11:36:41;;;;;;;;;;;;;;;6.21;42.08;100098.06;5048357;28;19917;-79
2022/01/20 11:39:06;;;;;;;;;;;;;;;6.28;41.80;100098.97;5047864;28;20504;-80
2022/01/20 11:41:37;;;;;;;;;;;;;;;6.48;41.24;100096.53;5047736;28;20015;-80
2022/01/20 11:44:28;;;;;;;;;;;;;;;6.44;41.40;100086.88;5048099;28;19916;-82
2022/01/20 11:47:03;;;;;;;;;;;;;;;6.15;41.89;100084.00;5044385;28;19952;-81
2022/01/20 11:49:33;;;;;;;;;;;;;;;6.28;42.34;100078.88;5063507;28;20572;-81
2022/01/20 11:51:59;;;;;;;;;;;;;;;6.33;42.25;100076.31;5047782;28;19919;-81
2022/01/20 11:54:32;;;;;;;;;;;;;;;6.38;41.90;100071.09;5047283;28;19917;-82
2022/01/20 11:57:28;;;;;;;;;;;;;;;6.72;40.79;100066.09;5048258;28;20454;-81
2022/01/20 11:59:56;;;;;;;;;;;;;;;6.62;40.66;100059.94;5035332;28;19908;-81
2022/01/20 12:02:42;;;;;;;;;;;;;;;6.70;40.81;100059.97;5047583;28;19913;-81
2022/01/20 12:05:18;;;;;;;;;;;;;;;6.89;40.95;100054.00;5046895;28;19939;-82
2022/01/20 12:07:44;;;;;;;;;;;;;;;6.59;41.55;100054.66;5047109;28;20342;-81
2022/01/20 12:10:14;;;;;;;;;;;;;;;6.72;40.76;100045.13;5047744;28;19908;-81
2022/01/20 12:12:40;;;;;;;;;;;;;;;6.71;40.32;100039.03;5047867;28;19913;-82
2022/01/20 12:15:16;;;;;;;;;;;;;;;6.62;40.97;100034.59;5047097;28;19920;-81
2022/01/20 12:17:52;;;;;;;;;;;;;;;6.83;40.00;100030.34;5047221;28;19927;-81
2022/01/20 12:20:18;;;;;;;;;;;;;;;6.76;40.41;100050.41;5047424;28;19908;-81
2022/01/20 12:22:44;;;;;;;;;;;;;;;6.85;39.79;100038.22;5046423;28;19927;-80
2022/01/20 12:25:21;;;;;;;;;;;;;;;6.86;40.07;100045.22;5047431;28;20396;-81
2022/01/20 12:27:46;;;;;;;;;;;;;;;6.93;39.94;100042.63;5046257;28;19919;-82
2022/01/20 12:30:20;;;;;;;;;;;;;;;7.08;39.39;100043.59;5047381;28;20655;-81
2022/01/20 12:32:54;;;;;;;;;;;;;;;7.19;39.16;100048.91;5046990;28;19916;-81
2022/01/20 12:35:19;;;;;;;;;;;;;;;7.11;39.65;100056.72;5046219;28;19916;-81
2022/01/20 12:37:45;;;;;;;;;;;;;;;7.29;41.36;100048.94;5046916;28;19924;-81
2022/01/20 12:40:18;;;;;;;;;;;;;;;7.26;39.79;100048.94;5045882;28;19916;-81
2022/01/20 12:42:43;;;;;;;;;;;;;;;7.17;38.95;100039.25;5046179;28;19916;-81
2022/01/20 12:47:53;;;;;;;;;;;;;;;6.95;39.24;100033.06;5045395;28;20696;-81
2022/01/20 12:50:18;;;;;;;;;;;;;;;7.15;38.96;100024.38;5046658;28;19913;-81
2022/01/20 12:52:50;;;;;;;;;;;;;;;7.28;38.52;100020.94;5045796;28;19916;-80
2022/01/20 12:55:17;;;;;;;;;;;;;;;7.15;38.75;100004.28;5045832;28;19917;-80
2022/01/20 12:57:43;;;;;;;;;;;;;;;7.37;38.87;100006.09;5046045;28;19913;-81
2022/01/20 13:00:08;;;;;;;;;;;;;;;7.28;38.81;100005.19;5046224;28;19923;-81
2022/01/20 13:02:34;;;;;;;;;;;;;;;7.41;38.30;99995.59;5046370;28;19905;-81
2022/01/20 13:05:01;;;;;;;;;;;;;;;7.21;38.53;99997.28;5045434;28;19913;-80
2022/01/20 13:07:28;;;;;;;;;;;;;;;7.30;38.74;99999.94;5047158;28;19913;-81
2022/01/20 13:10:06;;;;;;;;;;;;;;;7.34;38.41;99999.09;5046390;28;19909;-81
2022/01/20 13:12:36;;;;;;;;;;;;;;;7.44;38.42;100005.25;5046394;28;19916;-81
2022/01/20 13:15:02;;;;;;;;;;;;;;;7.22;38.29;99992.06;5045464;28;20371;-80
2022/01/20 13:17:28;;;;;;;;;;;;;;;7.35;38.68;99996.47;5045827;28;19913;-81
2022/01/20 13:19:55;;;;;;;;;;;;;;;7.24;38.86;99989.44;5045980;28;20413;-81
2022/01/20 13:22:30;;;;;;;;;;;;;;;7.39;38.16;99996.50;5046520;28;19908;-81
2022/01/20 13:25:06;;;;;;;;;;;;;;;7.49;38.81;99996.50;5046705;28;19916;-81
2022/01/20 13:27:32;;;;;;;;;;;;;;;7.76;37.39;99989.56;5046184;28;19959;-80
2022/01/20 13:29:58;;;;;;;;;;;;;;;7.80;37.91;99995.66;5046355;28;19915;-81
2022/01/20 13:32:23;;;;;;;;;;;;;;;7.56;38.42;99988.66;5046520;28;19913;-80
2022/01/20 13:34:59;;;;;;;;;;;;;;;7.56;38.83;99992.16;5046343;28;19909;-81
2022/01/20 13:37:26;;;;;;;;;;;;;;;7.73;38.44;99991.31;5046065;28;20477;-80
2022/01/20 13:39:58;;;;;;;;;;;;;;;7.66;38.91;99982.53;5044750;28;20365;-81
2022/01/20 13:45:13;;;;;;;;;;;;;;;7.71;37.91;99989.53;5046235;28;20338;-81
2022/01/20 13:47:49;;;;;;;;;;;;;;;7.67;37.49;99979.03;5045675;28;19917;-81
2022/01/20 13:50:16;;;;;;;;;;;;;;;7.58;38.24;99974.63;5046074;28;19952;-80
2022/01/20 13:52:42;;;;;;;;;;;;;;;7.81;38.00;99982.53;5045945;28;20798;-80
2022/01/20 13:55:16;;;;;;;;;;;;;;;7.73;37.63;99978.19;5046174;28;20007;-80
2022/01/20 13:57:42;;;;;;;;;;;;;;;7.64;38.11;99977.28;5046247;28;20386;-81